Time;durP1;ratioP1;P1;durP2;ratioP2;P2;SDS_P1;SDS_P2;PMS_P1;PMS_P2;Temp;Humidity;BMP_temperature;BMP_pressure;BME280_temperature;BME280_humidity;BME280_pressure;Samples;Min_cycle;Max_cycle;Signal;HPM_P1;HPM_P2
2022/08/20 00:01:45;;;;;;;2.30;1.67;;;17.20;99.90;;;;;;5051994;28;20433;-74
2022/08/20 00:04:11;;;;;;;1.55;0.82;;;17.10;99.90;;;;;;5051807;28;20029;-73
2022/08/20 00:06:37;;;;;;;3.30;0.88;;;17.00;99.90;;;;;;5051923;28;20029;-74
2022/08/20 00:09:03;;;;;;;0.70;0.70;;;16.90;99.90;;;;;;5051856;28;20396;-74
2022/08/20 00:11:32;;;;;;;0.63;0.40;;;16.80;99.90;;;;;;5051809;28;20021;-74
2022/08/20 00:14:01;;;;;;;0.40;0.20;;;16.90;99.90;;;;;;5051238;28;20028;-74
2022/08/20 00:16:31;;;;;;;0.50;0.50;;;16.80;99.90;;;;;;5051491;28;20492;-74
2022/08/20 00:19:00;;;;;;;1.23;0.77;;;16.90;99.90;;;;;;5034921;28;20021;-73
2022/08/20 00:21:26;;;;;;;3.92;1.60;;;17.00;99.90;;;;;;5052733;28;20032;-74
2022/08/20 00:23:53;;;;;;;4.28;2.15;;;17.00;99.90;;;;;;5052826;28;20021;-74
2022/08/20 00:26:20;;;;;;;1.13;0.93;;;16.90;99.90;;;;;;5052559;28;20025;-74
2022/08/20 00:28:46;;;;;;;5.07;3.25;;;16.90;99.90;;;;;;5052640;28;20499;-74
2022/08/20 00:31:15;;;;;;;1.65;1.40;;;16.90;99.90;;;;;;5052661;28;20059;-74
2022/08/20 00:33:41;;;;;;;2.75;2.45;;;16.90;99.90;;;;;;5051460;28;20064;-74
2022/08/20 00:36:09;;;;;;;14.68;2.45;;;16.90;99.90;;;;;;5051142;28;20056;-74
2022/08/20 00:38:40;;;;;;;0.57;0.57;;;16.80;99.90;;;;;;5034540;28;20029;-74
2022/08/20 00:41:08;;;;;;;3.43;2.73;;;16.80;99.90;;;;;;5052506;28;20032;-74
2022/08/20 00:43:44;;;;;;;0.82;0.70;;;16.80;99.90;;;;;;5034536;28;20283;-74
2022/08/20 00:46:18;;;;;;;1.30;0.73;;;16.80;99.90;;;;;;5051271;28;20029;-74
2022/08/20 00:48:46;;;;;;;0.10;0.10;;;17.00;99.90;;;;;;5052371;28;20029;-74
2022/08/20 00:51:33;;;;;;;0.43;0.40;;;17.00;99.90;;;;;;5052232;28;20476;-74
2022/08/20 00:54:06;;;;;;;1.98;1.50;;;17.10;99.90;;;;;;5051022;28;20137;-74
2022/08/20 00:56:33;;;;;;;1.90;1.70;;;17.00;99.90;;;;;;5050964;28;20057;-74
2022/08/20 00:59:00;;;;;;;3.25;1.67;;;16.90;99.90;;;;;;5052143;28;20047;-73
2022/08/20 01:01:26;;;;;;;0.85;0.85;;;16.90;99.90;;;;;;5052246;28;20024;-73
2022/08/20 01:03:55;;;;;;;1.50;1.33;;;16.80;99.90;;;;;;5050951;28;20025;-74
2022/08/20 01:06:23;;;;;;;1.17;1.10;;;16.80;99.90;;;;;;5050846;28;20027;-74
2022/08/20 01:08:49;;;;;;;2.80;1.92;;;16.80;99.90;;;;;;5051916;28;20100;-74
2022/08/20 01:11:16;;;;;;;0.60;0.60;;;16.90;99.90;;;;;;5052408;28;20025;-74
2022/08/20 01:13:45;;;;;;;2.35;1.58;;;16.90;99.90;;;;;;5034131;28;20025;-74
2022/08/20 01:16:19;;;;;;;2.42;1.45;;;16.90;99.90;;;;;;5051889;28;20025;-74
2022/08/20 01:18:47;;;;;;;0.55;0.55;;;16.80;99.90;;;;;;5051910;28;20021;-74
2022/08/20 01:21:15;;;;;;;2.58;1.30;;;16.90;99.90;;;;;;5050678;28;20052;-74
2022/08/20 01:23:58;;;;;;;0.00;0.00;;;16.90;99.90;;;;;;5050618;28;20150;-73
2022/08/20 01:26:28;;;;;;;1.13;1.00;;;16.90;99.90;;;;;;5049621;28;20021;-74
2022/08/20 01:28:57;;;;;;;0.00;0.00;;;17.10;99.90;;;;;;5050474;28;20083;-74
2022/08/20 01:31:26;;;;;;;1.52;1.10;;;17.10;99.90;;;;;;5050662;28;20019;-74
2022/08/20 01:33:54;;;;;;;2.80;2.30;;;17.30;99.90;;;;;;5051774;28;20365;-73
2022/08/20 01:36:49;;;;;;;0.00;0.00;;;17.20;99.90;;;;;;5050604;28;20018;-74
2022/08/20 01:39:22;;;;;;;2.15;1.27;;;17.20;99.90;;;;;;5048283;28;20516;-74
2022/08/20 01:42:11;;;;;;;0.00;0.00;;;17.30;99.90;;;;;;5050493;28;20029;-74
2022/08/20 01:44:41;;;;;;;2.42;1.35;;;17.30;99.90;;;;;;5050503;28;20439;-74
2022/08/20 01:47:23;;;;;;;1.85;1.10;;;17.30;99.90;;;;;;5051480;28;20098;-74
2022/08/20 01:49:55;;;;;;;2.58;1.90;;;17.40;99.90;;;;;;5051622;28;20104;-74
2022/08/20 01:52:40;;;;;;;0.22;0.22;;;17.30;99.90;;;;;;5051611;28;20029;-74
2022/08/20 01:55:07;;;;;;;0.00;0.00;;;17.20;99.90;;;;;;5050369;28;20021;-74
2022/08/20 01:57:34;;;;;;;3.08;0.73;;;17.30;99.90;;;;;;5050257;28;20025;-74
2022/08/20 02:00:03;;;;;;;1.42;1.30;;;17.40;99.90;;;;;;5050365;28;20029;-74
2022/08/20 02:02:29;;;;;;;2.15;1.50;;;17.40;99.90;;;;;;5050194;28;20036;-74
2022/08/20 02:04:59;;;;;;;6.55;3.95;;;17.20;99.90;;;;;;5033289;28;20025;-74
2022/08/20 02:07:25;;;;;;;5.07;3.40;;;17.20;99.90;;;;;;5051221;28;20048;-73
2022/08/20 02:09:51;;;;;;;3.05;2.70;;;17.00;99.90;;;;;;5050304;28;20476;-74
2022/08/20 02:12:17;;;;;;;0.30;0.30;;;17.00;99.90;;;;;;5050299;28;20082;-73
2022/08/20 02:14:47;;;;;;;1.48;0.88;;;17.00;99.90;;;;;;5051430;28;20441;-74
2022/08/20 02:17:13;;;;;;;2.75;2.42;;;17.00;99.90;;;;;;5051331;28;20029;-74
2022/08/20 02:19:47;;;;;;;0.80;0.63;;;17.00;99.90;;;;;;5050253;28;20017;-74
2022/08/20 02:22:34;;;;;;;1.27;1.17;;;17.10;99.90;;;;;;5051342;28;20022;-74
2022/08/20 02:25:00;;;;;;;1.15;1.10;;;17.20;99.90;;;;;;5051293;28;20025;-74
2022/08/20 02:27:26;;;;;;;0.75;0.75;;;17.30;99.90;;;;;;5050038;28;20035;-74
2022/08/20 02:29:53;;;;;;;0.10;0.10;;;17.20;99.90;;;;;;5051325;28;20111;-74
2022/08/20 02:32:19;;;;;;;1.75;1.63;;;17.20;99.90;;;;;;5049873;28;20082;-74
2022/08/20 02:34:45;;;;;;;0.00;0.00;;;17.10;99.90;;;;;;5051250;28;20441;-74
2022/08/20 02:37:17;;;;;;;0.43;0.40;;;17.10;99.90;;;;;;5051521;28;20052;-74
2022/08/20 02:39:44;;;;;;;1.15;0.70;;;17.20;99.90;;;;;;5036863;28;20086;-74
2022/08/20 02:42:11;;;;;;;0.43;0.43;;;17.20;99.90;;;;;;5036847;28;20395;-74
2022/08/20 02:44:38;;;;;;;0.43;0.43;;;17.30;99.90;;;;;;5053562;28;20032;-74
2022/08/20 02:47:05;;;;;;;1.33;0.57;;;17.40;99.90;;;;;;5054899;28;20104;-74
2022/08/20 02:49:31;;;;;;;0.00;0.00;;;17.40;99.90;;;;;;5054631;28;20102;-74
2022/08/20 02:51:57;;;;;;;1.02;0.88;;;17.40;99.90;;;;;;5053237;28;20033;-74
2022/08/20 02:54:23;;;;;;;0.60;0.55;;;17.40;99.90;;;;;;5054617;28;20025;-74
2022/08/20 02:56:50;;;;;;;1.45;0.55;;;17.40;99.90;;;;;;5053107;28;20021;-74
2022/08/20 02:59:17;;;;;;;0.00;0.00;;;17.20;99.90;;;;;;5053271;28;20100;-74
2022/08/20 03:01:43;;;;;;;6.90;2.90;;;17.30;99.90;;;;;;5054234;28;20024;-74
2022/08/20 03:04:09;;;;;;;3.83;3.08;;;17.20;99.90;;;;;;5054303;28;20459;-74
2022/08/20 03:06:35;;;;;;;1.80;1.48;;;17.20;99.90;;;;;;5054212;28;20025;-74
2022/08/20 03:09:04;;;;;;;1.38;1.27;;;17.20;99.90;;;;;;5052890;28;20021;-74
2022/08/20 03:11:31;;;;;;;0.00;0.00;;;17.30;99.90;;;;;;5054199;28;20017;-74
2022/08/20 03:13:57;;;;;;;0.00;0.00;;;17.30;99.90;;;;;;5052830;28;20021;-74
2022/08/20 03:16:22;;;;;;;0.65;0.57;;;17.40;99.90;;;;;;5052735;28;20511;-74
2022/08/20 03:18:48;;;;;;;6.03;1.63;;;17.40;99.90;;;;;;5052701;28;20049;-74
2022/08/20 03:21:14;;;;;;;1.38;1.27;;;17.30;99.90;;;;;;5052810;28;20021;-74
2022/08/20 03:23:40;;;;;;;2.35;1.83;;;17.20;99.90;;;;;;5052734;28;20570;-74
2022/08/20 03:26:08;;;;;;;2.55;1.77;;;17.20;99.90;;;;;;5052550;28;20029;-74
2022/08/20 03:28:34;;;;;;;0.55;0.45;;;17.20;99.90;;;;;;5053795;28;20487;-74
2022/08/20 03:31:01;;;;;;;3.83;1.30;;;17.30;99.90;;;;;;5052448;28;20032;-74
2022/08/20 03:33:27;;;;;;;2.35;2.05;;;17.40;99.90;;;;;;5053807;28;20020;-74
2022/08/20 03:35:53;;;;;;;3.33;1.40;;;17.30;99.90;;;;;;5053631;28;20021;-74
2022/08/20 03:38:21;;;;;;;1.48;1.38;;;17.30;99.90;;;;;;5053637;28;20028;-74
2022/08/20 03:40:47;;;;;;;0.75;0.75;;;17.40;99.90;;;;;;5053405;28;20044;-74
2022/08/20 03:43:13;;;;;;;0.50;0.50;;;17.30;99.90;;;;;;5053638;28;20119;-74
2022/08/20 03:45:42;;;;;;;0.57;0.30;;;17.20;99.90;;;;;;5052356;28;20108;-74
2022/08/20 03:48:11;;;;;;;0.00;0.00;;;17.30;99.90;;;;;;5051541;28;20108;-74
2022/08/20 03:50:41;;;;;;;0.17;0.17;;;17.20;99.90;;;;;;5052292;28;20033;-74
2022/08/20 03:53:09;;;;;;;1.05;1.00;;;17.30;99.90;;;;;;5035536;28;20029;-74
2022/08/20 03:55:35;;;;;;;0.60;0.60;;;17.30;99.90;;;;;;5053222;28;20025;-74
2022/08/20 03:58:05;;;;;;;0.00;0.00;;;17.40;99.90;;;;;;5053510;28;20104;-74
2022/08/20 04:00:37;;;;;;;0.22;0.20;;;17.40;99.90;;;;;;5052132;28;20086;-74
2022/08/20 04:03:04;;;;;;;0.22;0.22;;;17.40;99.90;;;;;;5053703;28;20025;-74
2022/08/20 04:05:32;;;;;;;0.82;0.82;;;17.60;99.90;;;;;;5052886;28;20112;-74
2022/08/20 04:08:01;;;;;;;1.70;1.60;;;17.50;99.90;;;;;;5053042;28;20025;-74
2022/08/20 04:10:28;;;;;;;0.73;0.73;;;17.40;99.90;;;;;;5051787;28;20079;-74
2022/08/20 04:12:53;;;;;;;2.40;0.63;;;17.30;99.90;;;;;;5053140;28;20021;-74
2022/08/20 04:15:21;;;;;;;0.55;0.52;;;17.40;99.90;;;;;;5052895;28;20534;-74
2022/08/20 04:17:49;;;;;;;0.10;0.10;;;17.50;99.90;;;;;;5053010;28;20515;-74
2022/08/20 04:20:21;;;;;;;0.00;0.00;;;17.40;99.90;;;;;;5052968;28;20068;-73
2022/08/20 04:22:49;;;;;;;0.00;0.00;;;17.50;99.90;;;;;;5053106;28;20017;-74
2022/08/20 04:25:15;;;;;;;2.15;1.48;;;17.50;99.90;;;;;;5051480;28;20025;-74
2022/08/20 04:27:41;;;;;;;0.40;0.40;;;17.70;99.90;;;;;;5051591;28;20021;-74
2022/08/20 04:30:10;;;;;;;0.08;0.08;;;17.70;99.90;;;;;;5052638;28;20500;-74
2022/08/20 04:32:37;;;;;;;0.08;0.08;;;17.60;99.90;;;;;;5034669;28;20025;-74
2022/08/20 04:35:06;;;;;;;0.28;0.20;;;17.60;99.90;;;;;;5051373;28;20021;-74
2022/08/20 04:37:32;;;;;;;11.27;1.30;;;17.50;99.90;;;;;;5051334;28;20032;-74
2022/08/20 04:42:48;;;;;;;2.08;1.05;;;17.50;99.90;;;;;;5052830;28;20036;-71
2022/08/20 04:45:14;;;;;;;1.00;0.75;;;17.60;99.90;;;;;;5052382;28;20384;-71
2022/08/20 04:47:40;;;;;;;0.00;0.00;;;17.60;99.90;;;;;;5051242;28;20144;-72
2022/08/20 04:50:10;;;;;;;0.00;0.00;;;17.60;99.90;;;;;;5052498;28;20033;-71
2022/08/20 04:52:36;;;;;;;1.77;1.67;;;17.70;99.90;;;;;;5052389;28;20031;-71
2022/08/20 04:55:04;;;;;;;0.98;0.85;;;17.60;99.90;;;;;;5034336;28;20025;-71
2022/08/20 04:57:30;;;;;;;0.00;0.00;;;17.60;99.90;;;;;;5052239;28;20043;-72
2022/08/20 04:59:56;;;;;;;1.20;1.10;;;17.60;99.90;;;;;;5052160;28;20108;-71
2022/08/20 05:02:21;;;;;;;0.25;0.25;;;17.50;99.90;;;;;;5052262;28;20516;-73
2022/08/20 05:04:48;;;;;;;0.80;0.50;;;17.50;99.90;;;;;;5051966;28;20056;-72
2022/08/20 05:07:15;;;;;;;2.17;1.02;;;17.50;99.90;;;;;;5052078;28;20091;-72
2022/08/20 05:09:42;;;;;;;1.65;0.65;;;17.50;99.90;;;;;;5033885;28;20503;-71
2022/08/20 05:12:08;;;;;;;4.10;2.75;;;17.50;99.90;;;;;;5052107;28;20025;-72
2022/08/20 05:14:34;;;;;;;0.10;0.10;;;17.50;99.90;;;;;;5052022;28;20143;-72
2022/08/20 05:17:05;;;;;;;1.00;0.95;;;17.50;99.90;;;;;;5050598;28;20017;-72
2022/08/20 05:19:32;;;;;;;0.00;0.00;;;17.50;99.90;;;;;;5051958;28;20077;-71
2022/08/20 05:21:59;;;;;;;0.15;0.15;;;17.60;99.90;;;;;;5051964;28;20021;-71
2022/08/20 05:24:25;;;;;;;3.63;0.88;;;17.60;99.90;;;;;;5052009;28;20036;-71
2022/08/20 05:26:53;;;;;;;0.98;0.80;;;17.70;99.90;;;;;;5050645;28;20033;-71
2022/08/20 05:29:20;;;;;;;0.00;0.00;;;17.70;99.90;;;;;;5050697;28;20025;-71
2022/08/20 05:31:46;;;;;;;1.13;0.47;;;17.70;99.90;;;;;;5051804;28;20476;-72
2022/08/20 05:34:12;;;;;;;0.00;0.00;;;17.60;99.90;;;;;;5051998;28;20017;-72
2022/08/20 05:36:45;;;;;;;0.00;0.00;;;17.60;99.90;;;;;;5051643;28;20029;-71
2022/08/20 05:39:12;;;;;;;0.00;0.00;;;17.70;99.90;;;;;;5052165;28;20079;-71
2022/08/20 05:41:39;;;;;;;0.00;0.00;;;17.80;99.90;;;;;;5051793;28;20407;-72
2022/08/20 05:44:09;;;;;;;0.57;0.55;;;17.80;99.90;;;;;;5051834;28;20029;-71
2022/08/20 05:46:39;;;;;;;3.10;1.65;;;17.70;99.90;;;;;;5051647;28;20033;-71
2022/08/20 05:49:10;;;;;;;0.10;0.10;;;17.70;99.90;;;;;;5052139;28;20109;-71
2022/08/20 05:51:36;;;;;;;1.30;1.05;;;17.70;99.90;;;;;;5051645;28;20025;-71
2022/08/20 05:54:03;;;;;;;0.82;0.82;;;17.80;99.90;;;;;;5051662;28;20025;-72
2022/08/20 05:56:29;;;;;;;0.43;0.43;;;17.90;99.90;;;;;;5049981;28;20115;-71
2022/08/20 05:58:55;;;;;;;0.10;0.10;;;17.90;99.90;;;;;;5051663;28;20106;-71
2022/08/20 06:01:21;;;;;;;0.28;0.15;;;17.80;99.90;;;;;;5050323;28;20032;-72
2022/08/20 06:06:33;;;;;;;1.08;0.35;;;17.80;99.90;;;;;;5050227;28;20040;-72
2022/08/20 06:08:59;;;;;;;2.80;2.28;;;17.70;99.90;;;;;;5051415;28;20025;-72
2022/08/20 06:11:24;;;;;;;1.15;0.60;;;17.70;99.90;;;;;;5050613;28;20362;-72
2022/08/20 06:13:50;;;;;;;0.80;0.80;;;17.70;99.90;;;;;;5053858;28;20025;-71
2022/08/20 06:16:16;;;;;;;0.85;0.25;;;17.50;99.90;;;;;;5055121;28;20048;-72
2022/08/20 06:18:41;;;;;;;0.55;0.55;;;17.40;99.90;;;;;;5055047;28;20052;-71
2022/08/20 06:21:07;;;;;;;0.60;0.50;;;17.50;99.90;;;;;;5055136;28;20037;-72
2022/08/20 06:23:33;;;;;;;0.00;0.00;;;17.60;99.90;;;;;;5053972;28;20045;-73
2022/08/20 06:25:59;;;;;;;0.08;0.08;;;17.70;99.90;;;;;;5055028;28;20476;-72
2022/08/20 06:28:25;;;;;;;0.28;0.28;;;17.60;99.90;;;;;;5053522;28;20029;-72
2022/08/20 06:30:50;;;;;;;0.00;0.00;;;17.60;99.90;;;;;;5054935;28;20031;-72
2022/08/20 06:33:16;;;;;;;0.88;0.63;;;17.60;99.90;;;;;;5053714;28;20100;-71
2022/08/20 06:35:43;;;;;;;0.00;0.00;;;17.60;99.90;;;;;;5054783;28;20096;-72
2022/08/20 06:38:11;;;;;;;0.05;0.05;;;17.60;99.90;;;;;;5054781;28;20028;-72
2022/08/20 06:40:37;;;;;;;0.65;0.65;;;17.60;99.90;;;;;;5054829;28;20036;-72
2022/08/20 06:43:02;;;;;;;0.00;0.00;;;17.80;99.90;;;;;;5054666;28;20029;-72
2022/08/20 06:45:31;;;;;;;0.30;0.30;;;17.70;99.90;;;;;;5054677;28;20037;-71
2022/08/20 06:48:00;;;;;;;0.47;0.47;;;17.70;99.90;;;;;;5054537;28;20163;-72
2022/08/20 06:50:37;;;;;;;1.52;1.13;;;17.70;99.90;;;;;;5054659;28;20391;-72
2022/08/20 06:53:07;;;;;;;0.30;0.30;;;17.70;99.90;;;;;;5053348;28;20024;-72
2022/08/20 06:55:35;;;;;;;1.65;1.55;;;17.70;99.90;;;;;;5053149;28;20020;-72
2022/08/20 06:58:04;;;;;;;0.00;0.00;;;17.60;99.90;;;;;;5054396;28;20021;-71
2022/08/20 07:00:32;;;;;;;0.10;0.10;;;17.60;99.90;;;;;;5054494;28;20048;-72
2022/08/20 07:02:59;;;;;;;0.00;0.00;;;17.60;99.90;;;;;;5054474;28;20025;-72
2022/08/20 07:05:37;;;;;;;0.82;0.55;;;17.60;99.90;;;;;;5054030;28;20068;-72
2022/08/20 07:08:03;;;;;;;0.00;0.00;;;17.70;99.90;;;;;;5054405;28;20029;-72
2022/08/20 07:10:30;;;;;;;0.20;0.20;;;17.70;99.90;;;;;;5054144;28;20017;-72
2022/08/20 07:12:58;;;;;;;1.15;0.95;;;17.80;99.90;;;;;;5053129;28;20021;-72
2022/08/20 07:15:25;;;;;;;0.30;0.30;;;17.90;99.90;;;;;;5052794;28;20397;-72
2022/08/20 07:17:54;;;;;;;0.47;0.43;;;17.80;99.90;;;;;;5052706;28;20473;-72
2022/08/20 07:20:21;;;;;;;0.88;0.88;;;17.90;99.90;;;;;;5052908;28;20112;-72
2022/08/20 07:22:47;;;;;;;0.20;0.20;;;17.90;99.90;;;;;;5053394;28;20029;-72
2022/08/20 07:25:15;;;;;;;0.00;0.00;;;18.00;99.90;;;;;;5052150;28;20029;-72
2022/08/20 07:27:42;;;;;;;1.48;0.75;;;17.90;99.90;;;;;;5053893;28;20018;-73
2022/08/20 07:32:56;;;;;;;4.75;2.22;;;17.90;99.90;;;;;;5053795;28;20040;-72
2022/08/20 07:35:22;;;;;;;0.77;0.57;;;17.80;99.90;;;;;;5053645;28;20083;-72
2022/08/20 07:37:50;;;;;;;2.08;1.38;;;17.80;99.90;;;;;;5053748;28;20508;-72
2022/08/20 07:40:21;;;;;;;0.00;0.00;;;17.80;99.90;;;;;;5053732;28;20033;-72
2022/08/20 07:42:49;;;;;;;1.17;1.17;;;17.80;99.90;;;;;;5052591;28;20029;-72
2022/08/20 07:45:17;;;;;;;0.35;0.15;;;18.00;99.90;;;;;;5052165;28;20094;-72
2022/08/20 07:47:44;;;;;;;0.00;0.00;;;17.90;99.90;;;;;;5053478;28;20507;-72
2022/08/20 07:50:14;;;;;;;0.00;0.00;;;18.00;99.90;;;;;;5053732;28;20058;-72
2022/08/20 07:52:39;;;;;;;0.20;0.20;;;18.10;99.90;;;;;;5053464;28;20021;-71
2022/08/20 07:55:08;;;;;;;0.20;0.20;;;18.20;99.90;;;;;;5053233;28;20388;-72
2022/08/20 07:57:35;;;;;;;0.40;0.40;;;18.30;99.90;;;;;;5052253;28;20013;-72
2022/08/20 08:00:02;;;;;;;0.00;0.00;;;18.30;99.90;;;;;;5052061;28;20029;-72
2022/08/20 08:02:28;;;;;;;1.25;0.55;;;18.20;99.90;;;;;;5053316;28;20388;-72
2022/08/20 08:04:54;;;;;;;0.00;0.00;;;18.40;99.90;;;;;;5053132;28;20021;-72
2022/08/20 08:07:21;;;;;;;0.00;0.00;;;18.50;99.90;;;;;;5045660;28;20029;-71
2022/08/20 08:09:49;;;;;;;0.10;0.10;;;18.40;99.90;;;;;;5047020;28;20017;-71
2022/08/20 08:12:15;;;;;;;0.00;0.00;;;18.40;99.90;;;;;;5034683;28;20396;-72
2022/08/20 08:14:44;;;;;;;1.27;1.17;;;18.50;99.90;;;;;;5033098;28;20056;-73
2022/08/20 08:17:11;;;;;;;1.92;0.70;;;18.40;99.90;;;;;;5032979;28;20500;-71
2022/08/20 08:19:41;;;;;;;0.00;0.00;;;18.20;99.90;;;;;;5031774;28;20029;-72
2022/08/20 08:22:11;;;;;;;0.00;0.00;;;18.30;99.90;;;;;;5032532;28;20029;-71
2022/08/20 08:24:38;;;;;;;0.05;0.05;;;18.30;99.90;;;;;;5032632;28;20086;-72
2022/08/20 08:27:04;;;;;;;4.70;3.90;;;18.40;99.90;;;;;;5032571;28;20025;-72
2022/08/20 08:29:30;;;;;;;0.00;0.00;;;18.30;99.90;;;;;;5031606;28;20029;-72
2022/08/20 08:31:55;;;;;;;11.05;6.80;;;18.40;99.90;;;;;;5014994;28;20025;-72
2022/08/20 08:34:25;;;;;;;0.15;0.15;;;18.20;99.90;;;;;;5032409;28;20380;-72
2022/08/20 08:36:51;;;;;;;0.40;0.35;;;18.20;99.90;;;;;;5032485;28;20021;-71
2022/08/20 08:39:18;;;;;;;0.00;0.00;;;18.40;99.90;;;;;;5030324;28;20279;-71
2022/08/20 08:41:50;;;;;;;0.25;0.25;;;18.60;99.90;;;;;;5029982;28;20033;-72
2022/08/20 08:44:25;;;;;;;0.10;0.10;;;18.60;99.90;;;;;;5032927;28;20022;-72
2022/08/20 08:46:59;;;;;;;0.45;0.45;;;18.80;99.90;;;;;;5035190;28;20552;-74
2022/08/20 08:49:32;;;;;;;0.00;0.00;;;18.70;99.90;;;;;;5048853;28;20078;-73
2022/08/20 08:52:10;;;;;;;0.38;0.38;;;18.60;99.90;;;;;;5034653;28;20037;-71
2022/08/20 08:54:48;;;;;;;1.27;0.95;;;18.60;99.90;;;;;;5043734;28;20029;-74
2022/08/20 08:57:15;;;;;;;0.80;0.80;;;18.60;99.90;;;;;;5031411;28;20021;-73
2022/08/20 08:59:41;;;;;;;0.65;0.65;;;18.70;99.90;;;;;;5014665;28;20391;-73
2022/08/20 09:02:07;;;;;;;0.20;0.20;;;18.50;99.90;;;;;;5032221;28;20036;-73
2022/08/20 09:04:39;;;;;;;0.00;0.00;;;18.60;99.90;;;;;;5031447;28;20104;-73
2022/08/20 09:07:10;;;;;;;1.08;0.88;;;18.80;99.90;;;;;;5049055;28;20029;-73
2022/08/20 09:09:40;;;;;;;0.00;0.00;;;18.90;99.90;;;;;;5050933;28;20021;-73
2022/08/20 09:12:10;;;;;;;0.13;0.13;;;18.90;99.90;;;;;;5034241;28;20053;-73
2022/08/20 09:14:36;;;;;;;1.85;1.27;;;18.80;99.90;;;;;;5052090;28;20036;-73
2022/08/20 09:17:02;;;;;;;0.70;0.65;;;18.80;99.90;;;;;;5034139;28;20040;-73
2022/08/20 09:19:28;;;;;;;0.10;0.10;;;18.60;99.90;;;;;;5050898;28;20021;-73
2022/08/20 09:21:54;;;;;;;0.60;0.43;;;18.70;99.90;;;;;;5052094;28;20032;-74
2022/08/20 09:24:20;;;;;;;0.20;0.20;;;18.70;99.90;;;;;;5051935;28;20396;-72
2022/08/20 09:26:45;;;;;;;2.70;1.42;;;18.50;99.90;;;;;;5050471;28;20029;-72
2022/08/20 09:29:13;;;;;;;0.38;0.38;;;18.50;99.90;;;;;;5052032;28;20570;-73
2022/08/20 09:31:39;;;;;;;0.32;0.32;;;18.60;99.90;;;;;;5052061;28;20366;-73
2022/08/20 09:34:05;;;;;;;3.17;1.48;;;18.70;99.90;;;;;;5050885;28;20018;-74
2022/08/20 09:36:30;;;;;;;0.30;0.30;;;18.50;99.90;;;;;;5050495;28;20021;-73
2022/08/20 09:38:57;;;;;;;4.18;2.20;;;18.40;99.90;;;;;;5033977;28;20072;-73
2022/08/20 09:41:22;;;;;;;0.57;0.57;;;18.30;99.90;;;;;;5051595;28;20033;-73
2022/08/20 09:43:48;;;;;;;1.77;1.25;;;18.30;99.90;;;;;;5052013;28;20091;-73
2022/08/20 09:46:14;;;;;;;0.32;0.32;;;18.20;99.90;;;;;;5051965;28;20096;-73
2022/08/20 09:48:40;;;;;;;1.10;1.00;;;18.10;99.90;;;;;;5054663;28;20082;-73
2022/08/20 09:51:05;;;;;;;0.40;0.40;;;18.20;99.90;;;;;;5055611;28;20147;-73
2022/08/20 09:53:32;;;;;;;2.08;1.35;;;18.20;99.90;;;;;;5055022;28;20028;-73
2022/08/20 09:55:58;;;;;;;2.38;0.85;;;18.30;99.90;;;;;;5034599;28;20034;-72
2022/08/20 09:58:48;;;;;;;0.00;0.00;;;18.30;99.90;;;;;;5035524;28;20021;-73
2022/08/20 10:01:17;;;;;;;0.10;0.10;;;18.40;99.90;;;;;;5032929;28;20025;-72
2022/08/20 10:03:44;;;;;;;0.70;0.70;;;18.50;99.90;;;;;;5035459;28;20037;-72
2022/08/20 10:06:10;;;;;;;0.00;0.00;;;18.70;99.90;;;;;;5035405;28;20392;-72
2022/08/20 10:08:36;;;;;;;1.63;1.52;;;18.90;99.90;;;;;;5034259;28;20029;-72
2022/08/20 10:11:03;;;;;;;0.20;0.20;;;18.80;99.90;;;;;;5035631;28;20065;-71
2022/08/20 10:13:28;;;;;;;0.38;0.22;;;18.90;99.90;;;;;;5038012;28;20029;-72
2022/08/20 10:15:55;;;;;;;0.00;0.00;;;19.00;99.90;;;;;;5055275;28;20025;-72
2022/08/20 10:18:21;;;;;;;0.00;0.00;;;19.00;99.90;;;;;;5050310;28;20085;-72
2022/08/20 10:20:46;;;;;;;0.00;0.00;;;19.10;99.90;;;;;;5044621;28;20060;-72
2022/08/20 10:23:12;;;;;;;0.17;0.17;;;19.10;99.90;;;;;;5035165;28;20078;-72
2022/08/20 10:25:38;;;;;;;0.00;0.00;;;19.20;99.90;;;;;;5036491;28;20631;-72
2022/08/20 10:28:05;;;;;;;0.40;0.40;;;19.30;99.90;;;;;;5034858;28;20325;-71
2022/08/20 10:30:32;;;;;;;0.00;0.00;;;19.40;99.90;;;;;;5033837;28;20026;-72
2022/08/20 10:32:57;;;;;;;0.20;0.20;;;19.50;99.90;;;;;;5048790;28;20057;-72
2022/08/20 10:35:23;;;;;;;0.28;0.15;;;19.50;99.90;;;;;;5035568;28;20479;-72
2022/08/20 10:37:49;;;;;;;0.00;0.00;;;19.50;99.90;;;;;;5034848;28;20053;-72
2022/08/20 10:42:48;;;;;;;0.00;0.00;;;19.70;99.90;;;;;;5032464;28;20048;-75
2022/08/20 10:45:15;;;;;;;0.10;0.10;;;19.60;99.90;;;;;;5034638;28;20384;-75
2022/08/20 10:47:41;;;;;;;0.73;0.73;;;19.50;99.90;;;;;;5033265;28;20022;-75
2022/08/20 10:50:10;;;;;;;0.47;0.30;;;19.40;99.90;;;;;;5044907;28;20376;-75
2022/08/20 10:52:36;;;;;;;0.00;0.00;;;19.50;99.90;;;;;;5037621;28;20066;-75
2022/08/20 10:55:03;;;;;;;0.50;0.50;;;19.50;99.90;;;;;;5053149;28;20096;-75
2022/08/20 10:57:30;;;;;;;0.38;0.38;;;19.40;99.90;;;;;;5045859;28;20032;-75
2022/08/20 10:59:57;;;;;;;3.97;2.97;;;19.40;99.90;;;;;;5034234;28;20021;-75
2022/08/20 11:02:25;;;;;;;3.15;1.42;;;19.20;99.90;;;;;;5016752;28;20030;-75
2022/08/20 11:04:51;;;;;;;0.50;0.50;;;19.10;99.90;;;;;;5034287;28;20029;-75
2022/08/20 11:07:28;;;;;;;0.00;0.00;;;19.20;99.90;;;;;;5032255;28;20036;-75
2022/08/20 11:09:55;;;;;;;0.00;0.00;;;19.30;99.90;;;;;;5033018;28;20025;-75
2022/08/20 11:12:22;;;;;;;0.00;0.00;;;19.50;99.90;;;;;;5034425;28;20032;-75
2022/08/20 11:14:49;;;;;;;0.00;0.00;;;19.50;99.90;;;;;;5034363;28;20033;-75
2022/08/20 11:17:20;;;;;;;0.10;0.10;;;19.50;99.90;;;;;;5034325;28;20029;-75
2022/08/20 11:19:46;;;;;;;;;;;19.60;99.90;;;;;;5033389;28;20022;-74
2022/08/20 11:22:13;;;;;;;0.35;0.35;;;19.60;99.90;;;;;;5032990;28;19917;-74
2022/08/20 11:24:38;;;;;;;0.00;0.00;;;19.70;99.90;;;;;;5034148;28;20477;-74
2022/08/20 11:27:06;;;;;;;7.22;2.45;;;19.70;99.90;;;;;;5034281;28;20029;-74
2022/08/20 11:29:33;;;;;;;0.10;0.10;;;19.90;99.90;;;;;;5034003;28;20035;-75
2022/08/20 11:31:59;;;;;;;0.10;0.10;;;19.90;99.90;;;;;;5033996;28;20025;-74
2022/08/20 11:34:25;;;;;;;0.00;0.00;;;19.90;99.90;;;;;;5033904;28;20036;-74
2022/08/20 11:36:51;;;;;;;0.00;0.00;;;20.00;99.90;;;;;;5033863;28;20045;-74
2022/08/20 11:39:17;;;;;;;1.15;1.15;;;20.20;99.90;;;;;;5033791;28;20025;-74
2022/08/20 11:41:43;;;;;;;0.10;0.10;;;20.00;99.90;;;;;;5033685;28;20412;-74
2022/08/20 11:44:10;;;;;;;5.63;1.77;;;19.90;99.90;;;;;;5033716;28;20025;-75
2022/08/20 11:46:36;;;;;;;0.40;0.30;;;19.80;99.90;;;;;;5033593;28;20111;-75
2022/08/20 11:49:02;;;;;;;0.20;0.20;;;19.50;99.90;;;;;;5033529;28;20026;-75
2022/08/20 11:51:28;;;;;;;0.32;0.32;;;19.50;99.90;;;;;;5032220;28;20029;-75
2022/08/20 11:53:53;;;;;;;0.88;0.80;;;19.70;99.90;;;;;;5033635;28;20045;-74
2022/08/20 11:56:20;;;;;;;0.00;0.00;;;19.50;99.90;;;;;;5015156;28;20477;-75
2022/08/20 11:58:46;;;;;;;0.00;0.00;;;19.70;99.90;;;;;;5040800;28;20025;-75
2022/08/20 12:01:13;;;;;;;0.65;0.65;;;19.80;99.90;;;;;;5038904;28;20024;-75
2022/08/20 12:03:38;;;;;;;0.00;0.00;;;19.80;99.90;;;;;;5053315;28;20056;-75
2022/08/20 12:06:04;;;;;;;0.00;0.00;;;19.60;99.90;;;;;;5041309;28;20453;-75
2022/08/20 12:08:30;;;;;;;0.20;0.20;;;19.60;99.90;;;;;;5033109;28;20099;-75
2022/08/20 12:10:59;;;;;;;0.13;0.13;;;19.70;99.90;;;;;;5032742;28;20033;-75
2022/08/20 12:13:27;;;;;;;0.08;0.08;;;19.60;99.90;;;;;;5035189;28;20071;-75
2022/08/20 12:15:54;;;;;;;0.00;0.00;;;19.50;99.90;;;;;;5051690;28;20036;-75
2022/08/20 12:18:20;;;;;;;0.43;0.43;;;19.50;99.90;;;;;;5034858;28;20022;-75
2022/08/20 12:20:45;;;;;;;0.00;0.00;;;19.40;99.90;;;;;;5051637;28;20033;-75
2022/08/20 12:23:11;;;;;;;0.00;0.00;;;19.30;99.90;;;;;;5051789;28;20101;-75
2022/08/20 12:25:37;;;;;;;0.00;0.00;;;19.30;99.90;;;;;;5052765;28;20036;-75
2022/08/20 12:28:04;;;;;;;0.00;0.00;;;19.40;99.90;;;;;;5037358;28;20083;-75
2022/08/20 12:30:31;;;;;;;0.00;0.00;;;19.50;99.90;;;;;;5033506;28;20025;-75
2022/08/20 12:32:58;;;;;;;0.00;0.00;;;19.70;99.90;;;;;;5052685;28;20025;-75
2022/08/20 12:35:25;;;;;;;0.00;0.00;;;19.70;99.90;;;;;;5052563;28;20420;-72
2022/08/20 12:37:52;;;;;;;0.00;0.00;;;19.70;99.90;;;;;;5052567;28;20388;-75
2022/08/20 12:40:27;;;;;;;0.00;0.00;;;19.70;99.90;;;;;;5052665;28;20028;-75
2022/08/20 12:42:53;;;;;;;2.92;0.52;;;19.70;99.90;;;;;;5051389;28;20025;-74
2022/08/20 12:45:20;;;;;;;0.00;0.00;;;19.80;99.90;;;;;;5052375;28;20491;-75
2022/08/20 12:47:47;;;;;;;0.63;0.63;;;19.90;99.90;;;;;;5052200;28;20464;-74
2022/08/20 12:50:19;;;;;;;0.00;0.00;;;19.80;99.90;;;;;;5035687;28;20036;-74
2022/08/20 12:52:47;;;;;;;0.00;0.00;;;19.80;99.90;;;;;;5015001;28;20033;-74
2022/08/20 12:55:15;;;;;;;0.00;0.00;;;19.90;99.90;;;;;;5032420;28;20029;-74
2022/08/20 12:57:50;;;;;;;0.00;0.00;;;19.90;99.90;;;;;;5031063;28;20021;-74
2022/08/20 13:00:21;;;;;;;0.00;0.00;;;20.00;99.90;;;;;;5031111;28;20021;-74
2022/08/20 13:02:48;;;;;;;0.00;0.00;;;20.10;99.90;;;;;;5032295;28;20032;-74